createdAt,value
2022-12-15T00:00:17.683Z,100443.60
2022-12-15T00:03:26.028Z,100446.00
2022-12-15T00:06:13.020Z,100444.20
2022-12-15T00:08:59.019Z,100448.20
2022-12-15T00:11:45.642Z,100445.80
2022-12-15T00:14:31.211Z,100445.40
2022-12-15T00:17:16.382Z,100453.80
2022-12-15T00:20:01.864Z,100460.40
2022-12-15T00:22:47.376Z,100464.00
2022-12-15T00:25:33.696Z,100464.80
2022-12-15T00:28:20.292Z,100465.00
2022-12-15T00:31:05.715Z,100472.80
2022-12-15T00:33:51.659Z,100475.80
2022-12-15T00:36:37.288Z,100478.00
2022-12-15T00:39:04.317Z,100482.80
2022-12-15T00:41:31.256Z,100482.80
2022-12-15T00:43:59.566Z,100480.80
2022-12-15T00:46:44.814Z,100474.40
2022-12-15T00:49:31.643Z,100471.20
2022-12-15T00:52:17.083Z,100472.00
2022-12-15T00:55:02.233Z,100477.80
2022-12-15T00:57:47.732Z,100479.40
2022-12-15T01:00:35.155Z,100480.60
2022-12-15T01:03:34.375Z,100474.60
2022-12-15T01:06:28.533Z,100476.00
2022-12-15T01:09:15.227Z,100477.00
2022-12-15T01:12:02.335Z,100478.00
2022-12-15T01:14:49.928Z,100480.60
2022-12-15T01:17:38.252Z,100474.40
2022-12-15T01:20:17.519Z,100477.40
2022-12-15T01:22:52.875Z,100476.00
2022-12-15T01:25:23.681Z,100468.40
2022-12-15T01:27:51.219Z,100463.40
2022-12-15T01:30:23.640Z,100463.20
2022-12-15T01:32:50.326Z,100462.60
2022-12-15T01:35:19.083Z,100461.40
2022-12-15T01:37:46.258Z,100458.20
2022-12-15T01:40:39.459Z,100462.60
2022-12-15T01:43:20.317Z,100458.20
2022-12-15T01:46:04.061Z,100456.60
2022-12-15T01:48:33.537Z,100456.60
2022-12-15T01:51:31.169Z,100456.40
2022-12-15T01:54:20.401Z,100459.80
2022-12-15T01:56:52.345Z,100459.60
2022-12-15T01:59:30.717Z,100456.20
2022-12-15T02:01:59.311Z,100463.60
2022-12-15T02:04:26.696Z,100456.80
2022-12-15T02:06:53.315Z,100460.60
2022-12-15T02:09:26.619Z,100457.80
2022-12-15T02:12:02.788Z,100450.40
2022-12-15T02:15:04.138Z,100456.60
2022-12-15T02:17:55.298Z,100449.00
2022-12-15T02:20:40.055Z,100446.00
2022-12-15T02:23:38.657Z,100449.00
2022-12-15T02:26:14.381Z,100451.80
2022-12-15T02:29:04.925Z,100452.80
2022-12-15T02:31:54.335Z,100460.40
2022-12-15T02:34:49.537Z,100461.40
2022-12-15T02:37:34.011Z,100460.60
2022-12-15T02:40:03.964Z,100454.00
2022-12-15T02:42:35.592Z,100456.80
2022-12-15T02:45:19.293Z,100463.60
2022-12-15T02:48:36.795Z,100463.20
2022-12-15T02:51:44.005Z,100464.00
2022-12-15T02:55:16.782Z,100466.60
2022-12-15T02:58:13.547Z,100470.20
2022-12-15T03:00:52.784Z,100479.80
2022-12-15T03:03:22.332Z,100479.80
2022-12-15T03:05:54.329Z,100471.60
2022-12-15T03:08:21.661Z,100474.60
2022-12-15T03:10:52.467Z,100475.40
2022-12-15T03:13:21.178Z,100477.00
2022-12-15T03:15:51.783Z,100476.80
2022-12-15T03:18:19.073Z,100471.20
2022-12-15T03:20:45.551Z,100472.60
2022-12-15T03:23:12.021Z,100480.60
2022-12-15T03:25:38.395Z,100488.20
2022-12-15T03:28:05.025Z,100489.40
2022-12-15T03:30:31.374Z,100491.80
2022-12-15T03:32:58.445Z,100493.80
2022-12-15T03:35:25.546Z,100492.20
2022-12-15T03:37:52.276Z,100492.80
2022-12-15T03:40:18.696Z,100500.40
2022-12-15T03:42:48.215Z,100502.20
2022-12-15T03:45:23.987Z,100498.20
2022-12-15T03:47:51.702Z,100501.80
2022-12-15T03:50:23.116Z,100493.80
2022-12-15T03:53:01.743Z,100498.40
2022-12-15T03:55:30.223Z,100496.80
2022-12-15T03:57:58.683Z,100494.60
2022-12-15T04:00:25.747Z,100498.60
2022-12-15T04:02:52.952Z,100498.20
2022-12-15T04:05:32.762Z,100499.00
2022-12-15T04:08:01.145Z,100498.00
2022-12-15T04:10:34.354Z,100500.00
2022-12-15T04:13:09.435Z,100498.80
2022-12-15T04:15:39.263Z,100506.00
2022-12-15T04:18:10.451Z,100510.00
2022-12-15T04:20:39.590Z,100511.40
2022-12-15T04:23:07.139Z,100509.60
2022-12-15T04:25:54.012Z,100515.20
2022-12-15T04:28:40.357Z,100521.60
2022-12-15T04:31:35.976Z,100516.20
2022-12-15T04:34:28.493Z,100528.80
2022-12-15T04:37:14.213Z,100520.80
2022-12-15T04:40:05.946Z,100529.60
2022-12-15T04:42:58.624Z,100533.60
2022-12-15T04:45:43.810Z,100528.60
2022-12-15T04:48:29.411Z,100536.80
2022-12-15T04:51:14.414Z,100535.60
2022-12-15T04:54:03.091Z,100540.40
2022-12-15T04:56:50.137Z,100544.40
2022-12-15T04:59:36.145Z,100545.40
2022-12-15T05:02:22.163Z,100549.40
2022-12-15T05:05:07.915Z,100553.20
2022-12-15T05:07:55.580Z,100553.20
2022-12-15T05:10:40.677Z,100559.00
2022-12-15T05:13:26.987Z,100557.80
2022-12-15T05:16:12.683Z,100561.40
2022-12-15T05:19:00.315Z,100562.20
2022-12-15T05:21:46.256Z,100565.80
2022-12-15T05:24:32.947Z,100569.60
2022-12-15T05:27:18.556Z,100570.40
2022-12-15T05:30:04.959Z,100576.80
2022-12-15T05:32:32.945Z,100576.00
2022-12-15T05:35:00.837Z,100583.60
2022-12-15T05:37:27.779Z,100590.40
2022-12-15T05:39:54.377Z,100597.20
2022-12-15T05:42:21.295Z,100597.20
2022-12-15T05:44:50.178Z,100599.60
2022-12-15T05:47:16.617Z,100602.20
2022-12-15T05:49:43.022Z,100607.60
2022-12-15T05:52:09.536Z,100620.00
2022-12-15T05:54:35.900Z,100623.80
2022-12-15T05:57:09.077Z,100628.20
2022-12-15T05:59:35.585Z,100622.20
2022-12-15T06:02:02.313Z,100620.40
2022-12-15T06:04:29.496Z,100626.60
2022-12-15T06:06:57.539Z,100627.20
2022-12-15T06:09:24.004Z,100628.60
2022-12-15T06:11:51.123Z,100630.00
2022-12-15T06:14:18.731Z,100636.60
2022-12-15T06:16:50.708Z,100641.40
2022-12-15T06:19:21.588Z,100637.80
2022-12-15T06:21:48.529Z,100646.00
2022-12-15T06:24:15.413Z,100651.20
2022-12-15T06:26:43.665Z,100654.00
2022-12-15T06:29:12.632Z,100655.20
2022-12-15T06:31:40.450Z,100666.40
2022-12-15T06:34:12.349Z,100667.00
2022-12-15T06:36:40.112Z,100671.60
2022-12-15T06:39:10.487Z,100671.60
2022-12-15T06:41:37.466Z,100675.40
2022-12-15T06:44:06.276Z,100677.20
2022-12-15T06:46:35.602Z,100687.40
2022-12-15T06:49:03.518Z,100690.60
2022-12-15T06:51:30.124Z,100695.20
2022-12-15T06:53:56.652Z,100693.60
2022-12-15T06:56:35.387Z,100694.40
2022-12-15T06:59:08.180Z,100701.40
2022-12-15T07:01:37.954Z,100698.80
2022-12-15T07:04:05.251Z,100710.00
2022-12-15T07:06:37.092Z,100708.80
2022-12-15T07:09:13.080Z,100711.60
2022-12-15T07:11:40.417Z,100723.60
2022-12-15T07:14:07.471Z,100727.80
2022-12-15T07:16:34.175Z,100740.60
2022-12-15T07:19:00.758Z,100739.40
2022-12-15T07:21:27.348Z,100741.60
2022-12-15T07:23:58.129Z,100745.40
2022-12-15T07:26:26.481Z,100750.80
2022-12-15T07:28:54.146Z,100752.40
2022-12-15T07:31:23.437Z,100759.60
2022-12-15T07:33:52.219Z,100770.40
2022-12-15T07:36:19.977Z,100773.40
2022-12-15T07:38:50.799Z,100771.80
2022-12-15T07:41:20.996Z,100786.60
2022-12-15T07:43:48.435Z,100783.20
2022-12-15T07:46:17.401Z,100783.60
2022-12-15T07:48:50.513Z,100783.20
2022-12-15T07:51:20.149Z,100782.80
2022-12-15T07:53:49.804Z,100788.20
2022-12-15T07:56:20.174Z,100786.40
2022-12-15T07:58:50.156Z,100784.00
2022-12-15T08:01:17.110Z,100789.20
2022-12-15T08:03:47.150Z,100791.00
2022-12-15T08:06:15.137Z,100791.40
2022-12-15T08:08:44.345Z,100794.40
2022-12-15T08:11:14.261Z,100798.20
2022-12-15T08:16:29.765Z,100807.00
2022-12-15T08:18:58.228Z,100811.80
2022-12-15T08:21:25.787Z,100822.80
2022-12-15T08:23:53.464Z,100820.80
2022-12-15T08:26:25.032Z,100823.20
2022-12-15T08:28:57.103Z,100822.80
2022-12-15T08:31:27.291Z,100826.00
2022-12-15T08:33:54.547Z,100821.40
2022-12-15T08:36:21.163Z,100826.40
2022-12-15T08:38:49.308Z,100831.80
2022-12-15T08:41:26.642Z,100836.60
2022-12-15T08:43:55.993Z,100844.40
2022-12-15T08:46:34.327Z,100849.60
2022-12-15T08:49:04.269Z,100856.60
2022-12-15T08:51:33.244Z,100860.80
2022-12-15T08:54:01.233Z,100872.40
2022-12-15T08:56:29.189Z,100876.80
2022-12-15T08:59:01.507Z,100874.00
2022-12-15T09:01:31.867Z,100874.60
2022-12-15T09:04:01.973Z,100873.60
2022-12-15T09:06:34.629Z,100877.80
2022-12-15T09:09:10.429Z,100879.40
2022-12-15T09:11:40.380Z,100878.80
2022-12-15T09:14:07.510Z,100878.80
2022-12-15T09:16:36.438Z,100879.80
2022-12-15T09:19:04.284Z,100884.00
2022-12-15T09:21:32.413Z,100887.40
2022-12-15T09:24:04.649Z,100888.20
2022-12-15T09:26:34.459Z,100890.60
2022-12-15T09:29:04.285Z,100896.40
2022-12-15T09:31:37.616Z,100896.00
2022-12-15T09:34:04.174Z,100896.00
2022-12-15T09:36:32.597Z,100898.00
2022-12-15T09:39:01.951Z,100895.80
2022-12-15T09:41:35.123Z,100894.00
2022-12-15T09:44:13.853Z,100904.40
2022-12-15T09:47:06.001Z,100906.40
2022-12-15T09:49:58.541Z,100905.20
2022-12-15T09:52:30.734Z,100903.80
2022-12-15T09:55:03.354Z,100911.20
2022-12-15T09:58:10.637Z,100902.60
2022-12-15T10:00:59.315Z,100895.40
2022-12-15T10:04:04.914Z,100896.20
2022-12-15T10:06:52.573Z,100899.80
2022-12-15T10:09:38.149Z,100901.20
2022-12-15T10:12:21.453Z,100898.40
2022-12-15T10:15:08.517Z,100899.40
2022-12-15T10:17:51.653Z,100900.80
2022-12-15T10:20:31.514Z,100900.60
2022-12-15T10:23:19.226Z,100904.80
2022-12-15T10:26:11.402Z,100908.80
2022-12-15T10:28:52.530Z,100903.80
2022-12-15T10:31:34.907Z,100911.60
2022-12-15T10:34:16.558Z,100908.20
2022-12-15T10:36:50.823Z,100911.20
2022-12-15T10:39:18.923Z,100913.60
2022-12-15T10:41:46.626Z,100920.60
2022-12-15T10:44:31.868Z,100920.00
2022-12-15T10:47:14.271Z,100919.00
2022-12-15T10:49:40.864Z,100915.00
2022-12-15T10:52:33.851Z,100911.40
2022-12-15T10:55:02.145Z,100915.80
2022-12-15T10:57:31.137Z,100913.80
2022-12-15T11:00:13.067Z,100913.00
2022-12-15T11:02:41.589Z,100920.40
2022-12-15T11:05:15.095Z,100913.00
2022-12-15T11:07:43.854Z,100916.80
2022-12-15T11:10:51.011Z,100924.40
2022-12-15T11:13:23.427Z,100928.60
2022-12-15T11:15:58.484Z,100923.40
2022-12-15T11:18:58.513Z,100928.60
2022-12-15T11:21:56.027Z,100926.20
2022-12-15T11:24:43.235Z,100929.80
2022-12-15T11:27:38.351Z,100926.80
2022-12-15T11:30:18.524Z,100933.00
2022-12-15T11:33:00.876Z,100937.60
2022-12-15T11:35:59.120Z,100934.40
2022-12-15T11:38:49.930Z,100938.60
2022-12-15T11:41:53.065Z,100939.40
2022-12-15T11:45:09.094Z,100937.20
2022-12-15T11:47:55.670Z,100930.20
2022-12-15T11:51:02.346Z,100931.40
2022-12-15T11:55:01.697Z,100925.40
2022-12-15T11:58:24.535Z,100921.40
2022-12-15T12:01:26.692Z,100927.60
2022-12-15T12:04:31.866Z,100927.60
2022-12-15T12:07:17.117Z,100925.40
2022-12-15T12:10:33.716Z,100927.80
2022-12-15T12:13:41.406Z,100941.60
2022-12-15T12:16:56.925Z,100945.60
2022-12-15T12:19:54.368Z,100940.60
2022-12-15T12:22:27.720Z,100934.40
2022-12-15T12:25:04.431Z,100934.40
2022-12-15T12:27:42.332Z,100936.00
2022-12-15T12:30:19.424Z,100940.60
2022-12-15T12:33:05.086Z,100947.80
2022-12-15T12:35:59.982Z,100947.40
2022-12-15T12:38:38.608Z,100960.80
2022-12-15T12:41:27.076Z,100960.60
2022-12-15T12:44:06.618Z,100961.80
2022-12-15T12:46:46.862Z,100963.80
2022-12-15T12:49:35.460Z,100971.00
2022-12-15T12:52:18.726Z,100972.40
2022-12-15T12:54:57.833Z,100974.00
2022-12-15T12:57:38.106Z,100971.60
2022-12-15T13:00:07.387Z,100977.80
2022-12-15T13:02:40.097Z,100977.40
2022-12-15T13:05:35.861Z,100976.60
2022-12-15T13:08:05.557Z,100972.00
2022-12-15T13:10:37.624Z,100968.00
2022-12-15T13:13:28.495Z,100966.60
2022-12-15T13:16:20.169Z,100958.80
2022-12-15T13:19:14.890Z,100965.00
2022-12-15T13:21:44.949Z,100967.80
2022-12-15T13:24:35.531Z,100965.60
2022-12-15T13:27:08.480Z,100961.40
2022-12-15T13:29:55.187Z,100964.00
2022-12-15T13:32:35.731Z,100969.00
2022-12-15T13:35:31.567Z,100972.80
2022-12-15T13:38:06.824Z,100978.40
2022-12-15T13:40:36.421Z,100982.60
2022-12-15T13:43:05.664Z,100985.00
2022-12-15T13:46:00.575Z,100978.80
2022-12-15T13:48:40.907Z,100981.00
2022-12-15T13:51:38.197Z,100984.60
2022-12-15T13:54:27.795Z,100982.80
2022-12-15T13:57:06.521Z,100982.60
2022-12-15T13:59:32.813Z,100980.80
2022-12-15T14:02:00.084Z,100987.00
2022-12-15T14:04:29.617Z,100981.60
2022-12-15T14:07:01.277Z,100982.40
2022-12-15T14:09:32.345Z,100983.60
2022-12-15T14:12:06.518Z,100982.60
2022-12-15T14:14:37.483Z,100980.60
2022-12-15T14:17:13.146Z,100980.40
2022-12-15T14:19:50.951Z,100982.60
2022-12-15T14:22:31.059Z,100981.60
2022-12-15T14:25:19.058Z,100985.20
2022-12-15T14:27:45.761Z,100981.40
2022-12-15T14:30:35.076Z,100987.00
2022-12-15T14:33:10.362Z,100995.60
2022-12-15T14:35:50.043Z,100996.20
2022-12-15T14:38:35.255Z,100995.40
2022-12-15T14:41:05.531Z,101004.20
2022-12-15T14:43:38.966Z,101006.00
2022-12-15T14:46:26.511Z,101008.20
2022-12-15T14:49:16.379Z,101009.00
2022-12-15T14:51:52.255Z,101009.00
2022-12-15T14:54:37.349Z,101014.20
2022-12-15T14:57:37.897Z,101001.80
2022-12-15T15:00:35.246Z,101011.80
2022-12-15T15:03:18.273Z,101016.20
2022-12-15T15:06:18.128Z,101018.00
2022-12-15T15:08:50.880Z,101021.60
2022-12-15T15:11:34.686Z,101029.60
2022-12-15T15:14:18.480Z,101031.40
2022-12-15T15:17:04.483Z,101035.60
2022-12-15T15:19:39.050Z,101041.00
2022-12-15T15:22:59.049Z,101039.40
2022-12-15T15:25:40.028Z,101043.80
2022-12-15T15:28:18.858Z,101045.40
2022-12-15T15:30:51.410Z,101042.20
2022-12-15T15:33:25.787Z,101048.20
2022-12-15T15:35:59.849Z,101053.40
2022-12-15T15:38:40.300Z,101057.40
2022-12-15T15:41:26.102Z,101057.80
2022-12-15T15:44:03.887Z,101064.00
2022-12-15T15:46:48.405Z,101064.80
2022-12-15T15:49:22.466Z,101064.20
2022-12-15T15:51:49.669Z,101071.00
2022-12-15T15:54:26.800Z,101068.60
2022-12-15T15:56:54.678Z,101072.00
2022-12-15T15:59:24.700Z,101071.80
2022-12-15T16:01:55.599Z,101060.20
2022-12-15T16:04:24.498Z,101053.60
2022-12-15T16:06:53.477Z,101060.60
2022-12-15T16:09:20.803Z,101060.00
2022-12-15T16:11:58.210Z,101059.00
2022-12-15T16:14:29.718Z,101059.20
2022-12-15T16:17:02.671Z,101064.60
2022-12-15T16:19:30.228Z,101074.60
2022-12-15T16:22:00.089Z,101065.00
2022-12-15T16:24:29.065Z,101079.00
2022-12-15T16:26:57.023Z,101080.80
2022-12-15T16:29:23.675Z,101084.40
2022-12-15T16:31:51.867Z,101085.00
2022-12-15T16:34:24.160Z,101089.00
2022-12-15T16:37:08.808Z,101095.40
2022-12-15T16:39:35.878Z,101092.60
2022-12-15T16:42:03.891Z,101095.40
2022-12-15T16:44:32.157Z,101092.20
2022-12-15T16:47:02.175Z,101100.60
2022-12-15T16:49:33.981Z,101099.60
2022-12-15T16:52:07.863Z,101097.80
2022-12-15T16:54:36.704Z,101093.60
2022-12-15T16:57:11.251Z,101095.00
2022-12-15T16:59:37.736Z,101093.40
2022-12-15T17:02:38.616Z,101099.60
2022-12-15T17:05:07.025Z,101101.00
2022-12-15T17:07:38.212Z,101107.80
2022-12-15T17:10:06.175Z,101110.20
2022-12-15T17:12:36.507Z,101108.20
2022-12-15T17:15:17.050Z,101104.60
2022-12-15T17:17:47.573Z,101120.00
2022-12-15T17:20:29.240Z,101116.20
2022-12-15T17:23:23.319Z,101121.00
2022-12-15T17:28:40.203Z,101126.00
2022-12-15T17:31:20.788Z,101129.60
2022-12-15T17:33:49.866Z,101130.40
2022-12-15T17:36:28.902Z,101128.00
2022-12-15T17:39:01.539Z,101126.00
2022-12-15T17:41:58.085Z,101124.80
2022-12-15T17:44:48.456Z,101123.60
2022-12-15T17:47:16.159Z,101126.20
2022-12-15T17:49:43.564Z,101118.40
2022-12-15T17:52:33.789Z,101122.40
2022-12-15T17:55:04.134Z,101126.40
2022-12-15T17:57:32.752Z,101132.20
2022-12-15T18:00:01.706Z,101141.60
2022-12-15T18:02:28.655Z,101135.40
2022-12-15T18:04:55.405Z,101131.80
2022-12-15T18:07:25.003Z,101133.80
2022-12-15T18:09:55.142Z,101135.40
2022-12-15T18:12:27.688Z,101137.80
2022-12-15T18:14:58.751Z,101144.20
2022-12-15T18:17:28.463Z,101141.20
2022-12-15T18:19:56.854Z,101149.60
2022-12-15T18:22:24.427Z,101147.00
2022-12-15T18:24:55.129Z,101151.20
2022-12-15T18:27:30.483Z,101150.80
2022-12-15T18:29:59.682Z,101157.40
2022-12-15T18:32:29.375Z,101162.60
2022-12-15T18:34:59.637Z,101165.20
2022-12-15T18:37:28.617Z,101163.40
2022-12-15T18:39:58.222Z,101159.80
2022-12-15T18:42:31.954Z,101167.80
2022-12-15T18:44:59.772Z,101172.60
2022-12-15T18:47:27.002Z,101180.80
2022-12-15T18:50:01.719Z,101179.40
2022-12-15T18:52:36.853Z,101185.20
2022-12-15T18:55:16.455Z,101185.40
2022-12-15T18:57:53.353Z,101187.80
2022-12-15T19:00:29.653Z,101192.40
2022-12-15T19:03:02.197Z,101190.80
2022-12-15T19:05:32.092Z,101190.40
2022-12-15T19:08:09.777Z,101196.60
2022-12-15T19:10:48.003Z,101205.60
2022-12-15T19:13:21.924Z,101217.00
2022-12-15T19:15:50.362Z,101223.40
2022-12-15T19:18:38.436Z,101224.20
2022-12-15T19:21:44.586Z,101221.20
2022-12-15T19:24:18.743Z,101231.60
2022-12-15T19:26:45.449Z,101238.20
2022-12-15T19:29:24.252Z,101242.80
2022-12-15T19:31:55.177Z,101245.40
2022-12-15T19:34:23.995Z,101249.20
2022-12-15T19:36:51.036Z,101248.60
2022-12-15T19:39:25.801Z,101254.00
2022-12-15T19:41:54.093Z,101261.40
2022-12-15T19:44:25.534Z,101264.80
2022-12-15T19:46:53.369Z,101266.60
2022-12-15T19:49:23.113Z,101272.40
2022-12-15T19:51:50.770Z,101265.80
2022-12-15T19:54:21.812Z,101266.00
2022-12-15T19:56:55.675Z,101272.00
2022-12-15T19:59:27.545Z,101270.20
2022-12-15T20:02:00.306Z,101270.80
2022-12-15T20:04:30.219Z,101267.40
2022-12-15T20:07:04.589Z,101270.40
2022-12-15T20:09:32.400Z,101264.20
2022-12-15T20:12:04.235Z,101261.00
2022-12-15T20:14:32.869Z,101264.60
2022-12-15T20:16:59.805Z,101265.00
2022-12-15T20:19:31.699Z,101270.20
2022-12-15T20:21:58.381Z,101274.80
2022-12-15T20:24:27.230Z,101274.00
2022-12-15T20:26:55.018Z,101279.40
2022-12-15T20:29:30.570Z,101279.40
2022-12-15T20:31:59.328Z,101285.20
2022-12-15T20:34:26.855Z,101288.20
2022-12-15T20:36:54.132Z,101294.00
2022-12-15T20:39:28.724Z,101299.00
2022-12-15T20:41:56.718Z,101303.60
2022-12-15T20:44:23.996Z,101306.20
2022-12-15T20:46:51.268Z,101304.20
2022-12-15T20:49:21.801Z,101301.60
2022-12-15T20:51:51.883Z,101313.00
2022-12-15T20:54:27.790Z,101314.00
2022-12-15T20:56:56.987Z,101322.80
2022-12-15T20:59:23.822Z,101328.40
2022-12-15T21:01:51.138Z,101333.60
2022-12-15T21:04:26.876Z,101331.00
2022-12-15T21:06:56.921Z,101334.00
2022-12-15T21:09:24.564Z,101340.20
2022-12-15T21:14:35.471Z,101337.40
2022-12-15T21:17:04.172Z,101339.20
2022-12-15T21:19:33.715Z,101340.60
2022-12-15T21:22:00.850Z,101345.60
2022-12-15T21:24:36.439Z,101357.20
2022-12-15T21:27:03.727Z,101351.40
2022-12-15T21:29:33.217Z,101364.00
2022-12-15T21:31:59.707Z,101367.80
2022-12-15T21:34:26.187Z,101367.20
2022-12-15T21:36:55.234Z,101367.00
2022-12-15T21:39:34.754Z,101367.60
2022-12-15T21:42:11.401Z,101375.40
2022-12-15T21:44:38.478Z,101371.40
2022-12-15T21:47:49.114Z,101372.80
2022-12-15T21:50:17.504Z,101380.60
2022-12-15T21:52:47.581Z,101385.40
2022-12-15T21:55:21.646Z,101392.20
2022-12-15T21:57:48.846Z,101394.20
2022-12-15T22:00:21.340Z,101398.20
2022-12-15T22:02:51.745Z,101399.20
2022-12-15T22:05:31.876Z,101400.60
2022-12-15T22:08:21.850Z,101402.40
2022-12-15T22:10:52.068Z,101401.00
2022-12-15T22:13:24.079Z,101404.60
2022-12-15T22:15:50.614Z,101404.60
2022-12-15T22:18:20.650Z,101403.40
2022-12-15T22:20:52.122Z,101401.80
2022-12-15T22:23:20.052Z,101405.60
2022-12-15T22:25:53.673Z,101403.60
2022-12-15T22:28:27.214Z,101395.60
2022-12-15T22:30:58.549Z,101401.00
2022-12-15T22:33:27.549Z,101404.60
2022-12-15T22:35:55.734Z,101405.00
2022-12-15T22:38:23.662Z,101409.80
2022-12-15T22:40:55.719Z,101405.20
2022-12-15T22:43:41.660Z,101404.00
2022-12-15T22:46:12.896Z,101412.80
2022-12-15T22:48:44.034Z,101412.00
2022-12-15T22:51:15.566Z,101415.00
2022-12-15T22:53:45.386Z,101414.20
2022-12-15T22:56:37.976Z,101425.60
2022-12-15T22:59:12.145Z,101422.20
2022-12-15T23:40:21.541Z,101443.60
2022-12-15T23:42:50.148Z,101441.80
2022-12-15T23:45:19.997Z,101443.80
2022-12-15T23:47:47.585Z,101438.60
2022-12-15T23:50:14.082Z,101440.00
2022-12-15T23:52:41.994Z,101443.80
2022-12-15T23:55:10.509Z,101447.40
2022-12-15T23:57:38.729Z,101448.20
